createdAt,value
2022-12-23T00:00:20.044Z,99772.09
2022-12-23T00:02:53.640Z,99765.03
2022-12-23T00:05:30.187Z,99760.78
2022-12-23T00:08:06.470Z,99759.59
2022-12-23T00:10:40.162Z,99759.41
2022-12-23T00:13:31.787Z,99761.91
2022-12-23T00:16:06.174Z,99762.59
2022-12-23T00:18:40.280Z,99765.28
2022-12-23T00:21:15.349Z,99756.44
2022-12-23T00:23:49.490Z,99759.00
2022-12-23T00:26:23.938Z,99765.88
2022-12-23T00:28:58.995Z,99764.84
2022-12-23T00:31:32.401Z,99764.84
2022-12-23T00:34:05.968Z,99764.66
2022-12-23T00:36:40.755Z,99767.97
2022-12-23T00:39:31.927Z,99767.16
2022-12-23T00:42:22.743Z,99762.88
2022-12-23T00:45:15.390Z,99768.84
2022-12-23T00:48:06.756Z,99768.94
2022-12-23T00:50:41.036Z,99775.72
2022-12-23T00:53:14.422Z,99768.75
2022-12-23T00:55:48.748Z,99770.38
2022-12-23T00:58:22.501Z,99775.44
2022-12-23T01:01:14.980Z,99777.22
2022-12-23T01:04:05.760Z,99772.84
2022-12-23T01:06:39.332Z,99773.66
2022-12-23T01:09:12.589Z,99765.81
2022-12-23T01:11:46.140Z,99768.28
2022-12-23T01:14:19.587Z,99766.59
2022-12-23T01:16:54.623Z,99769.28
2022-12-23T01:19:28.401Z,99763.22
2022-12-23T01:22:02.023Z,99756.38
2022-12-23T01:24:35.422Z,99758.94
2022-12-23T01:27:08.996Z,99759.84
2022-12-23T01:29:42.518Z,99764.22
2022-12-23T01:32:17.499Z,99763.31
2022-12-23T01:34:50.983Z,99765.91
2022-12-23T01:37:24.646Z,99766.59
2022-12-23T01:39:57.973Z,99763.31
2022-12-23T01:42:47.528Z,99763.13
2022-12-23T01:45:21.575Z,99760.47
2022-12-23T01:47:57.971Z,99762.34
2022-12-23T01:50:32.526Z,99761.25
2022-12-23T01:53:08.544Z,99760.56
2022-12-23T01:55:44.765Z,99769.09
2022-12-23T01:58:20.463Z,99771.78
2022-12-23T02:01:12.622Z,99767.50
2022-12-23T02:03:48.803Z,99774.16
2022-12-23T02:06:41.773Z,99764.63
2022-12-23T02:09:19.052Z,99770.78
2022-12-23T02:12:18.771Z,99758.84
2022-12-23T02:15:24.631Z,99770.00
2022-12-23T02:18:11.943Z,99770.78
2022-12-23T02:21:03.355Z,99770.06
2022-12-23T02:23:49.672Z,99766.59
2022-12-23T02:26:39.552Z,99765.63
2022-12-23T02:29:26.942Z,99758.75
2022-12-23T02:32:06.146Z,99756.28
2022-12-23T02:34:41.733Z,99758.84
2022-12-23T02:37:18.557Z,99758.06
2022-12-23T02:39:55.428Z,99767.69
2022-12-23T02:42:32.152Z,99767.59
2022-12-23T02:45:08.885Z,99777.91
2022-12-23T02:47:46.048Z,99784.78
2022-12-23T02:50:21.538Z,99783.78
2022-12-23T02:52:58.203Z,99776.84
2022-12-23T02:55:37.074Z,99789.75
2022-12-23T02:58:12.232Z,99788.25
2022-12-23T03:00:47.547Z,99801.25
2022-12-23T03:03:22.669Z,99805.44
2022-12-23T03:05:56.700Z,99793.22
2022-12-23T03:08:32.287Z,99807.84
2022-12-23T03:11:07.545Z,99801.88
2022-12-23T03:13:51.808Z,99793.31
2022-12-23T03:16:28.867Z,99793.13
2022-12-23T03:19:12.249Z,99794.91
2022-12-23T03:21:47.764Z,99807.03
2022-12-23T03:24:25.686Z,99807.94
2022-12-23T03:27:02.775Z,99813.19
2022-12-23T03:29:40.614Z,99816.75
2022-12-23T03:32:15.549Z,99812.50
2022-12-23T03:34:53.248Z,99816.94
2022-12-23T03:37:28.468Z,99830.94
2022-12-23T03:40:04.848Z,99821.69
2022-12-23T03:42:39.919Z,99831.13
2022-12-23T03:45:38.172Z,99825.16
2022-12-23T03:48:12.778Z,99825.28
2022-12-23T03:50:49.617Z,99816.75
2022-12-23T03:53:25.159Z,99825.28
2022-12-23T03:56:01.032Z,99825.50
2022-12-23T03:58:37.861Z,99822.81
2022-12-23T04:01:14.042Z,99829.88
2022-12-23T04:03:52.881Z,99815.47
2022-12-23T04:06:29.693Z,99814.75
2022-12-23T04:09:03.912Z,99822.69
2022-12-23T04:11:38.039Z,99829.66
2022-12-23T04:14:11.397Z,99825.47
2022-12-23T04:16:45.126Z,99834.19
2022-12-23T04:19:18.523Z,99831.03
2022-12-23T04:21:54.087Z,99830.34
2022-12-23T04:24:27.434Z,99837.47
2022-12-23T04:27:00.904Z,99833.38
2022-12-23T04:29:34.203Z,99827.50
2022-12-23T04:32:07.776Z,99832.16
2022-12-23T04:34:41.165Z,99836.63
2022-12-23T04:37:16.012Z,99839.41
2022-12-23T04:39:49.318Z,99837.09
2022-12-23T04:42:23.263Z,99836.19
2022-12-23T04:44:56.585Z,99830.22
2022-12-23T04:47:30.106Z,99837.91
2022-12-23T04:50:03.454Z,99835.22
2022-12-23T04:52:38.523Z,99834.31
2022-12-23T04:55:11.899Z,99832.53
2022-12-23T04:57:45.669Z,99834.25
2022-12-23T05:00:19.371Z,99831.66
2022-12-23T05:02:53.060Z,99842.25
2022-12-23T05:05:26.411Z,99846.81
2022-12-23T05:08:05.086Z,99850.56
2022-12-23T05:10:38.557Z,99861.00
2022-12-23T05:13:12.189Z,99854.94
2022-12-23T05:15:45.726Z,99863.69
2022-12-23T05:18:19.436Z,99866.41
2022-12-23T05:20:52.795Z,99863.59
2022-12-23T05:23:27.911Z,99863.50
2022-12-23T05:26:01.393Z,99870.28
2022-12-23T05:28:35.053Z,99871.44
2022-12-23T05:31:08.767Z,99876.03
2022-12-23T05:33:42.419Z,99862.13
2022-12-23T05:36:15.896Z,99870.28
2022-12-23T05:38:50.842Z,99871.25
2022-12-23T05:41:24.161Z,99868.66
2022-12-23T05:43:57.713Z,99877.31
2022-12-23T05:46:31.163Z,99878.22
2022-12-23T05:49:04.704Z,99889.38
2022-12-23T05:51:38.173Z,99892.66
2022-12-23T05:54:13.031Z,99892.66
2022-12-23T05:56:46.388Z,99899.53
2022-12-23T05:59:19.873Z,99899.72
2022-12-23T06:01:53.234Z,99900.59
2022-12-23T06:04:27.086Z,99903.97
2022-12-23T06:07:00.660Z,99904.78
2022-12-23T06:09:35.681Z,99899.63
2022-12-23T06:12:09.195Z,99909.78
2022-12-23T06:14:42.759Z,99904.13
2022-12-23T06:17:16.253Z,99911.00
2022-12-23T06:19:49.919Z,99912.69
2022-12-23T06:22:23.546Z,99913.59
2022-12-23T06:24:58.409Z,99908.91
2022-12-23T06:27:31.714Z,99922.44
2022-12-23T06:30:05.571Z,99926.91
2022-12-23T06:32:39.192Z,99919.16
2022-12-23T06:35:13.463Z,99920.66
2022-12-23T06:37:46.872Z,99924.75
2022-12-23T06:40:21.855Z,99924.47
2022-12-23T06:42:55.170Z,99924.06
2022-12-23T06:45:28.766Z,99922.28
2022-12-23T06:48:02.075Z,99921.25
2022-12-23T06:50:35.592Z,99916.81
2022-12-23T06:53:08.927Z,99922.97
2022-12-23T06:55:43.926Z,99929.03
2022-12-23T06:58:17.211Z,99936.41
2022-12-23T07:00:50.804Z,99942.66
2022-12-23T07:03:24.431Z,99931.31
2022-12-23T07:05:58.076Z,99928.53
2022-12-23T07:08:31.445Z,99934.88
2022-12-23T07:11:06.439Z,99933.09
2022-12-23T07:13:39.721Z,99946.91
2022-12-23T07:16:13.418Z,99953.78
2022-12-23T07:18:46.814Z,99954.97
2022-12-23T07:21:28.549Z,99966.91
2022-12-23T07:24:03.106Z,99949.69
2022-12-23T07:26:38.064Z,99955.56
2022-12-23T07:29:11.379Z,99964.13
2022-12-23T07:31:44.907Z,99963.59
2022-12-23T07:34:18.271Z,99965.41
2022-12-23T07:36:51.798Z,99967.09
2022-12-23T07:39:25.445Z,99980.81
2022-12-23T07:42:25.009Z,99980.53
2022-12-23T07:44:53.656Z,99996.41
2022-12-23T07:47:27.169Z,100006.94
2022-12-23T07:50:00.456Z,100002.56
2022-12-23T07:52:34.011Z,99997.81
2022-12-23T07:55:07.583Z,99998.63
2022-12-23T07:57:42.714Z,100003.97
2022-12-23T08:00:16.336Z,99999.72
2022-12-23T08:02:50.297Z,99992.13
2022-12-23T08:05:23.875Z,100001.50
2022-12-23T08:07:57.554Z,100003.88
2022-12-23T08:10:30.905Z,99998.50
2022-12-23T08:13:05.936Z,100001.22
2022-12-23T08:15:39.256Z,100001.41
2022-12-23T08:18:12.788Z,100008.41
2022-12-23T08:20:54.010Z,100010.28
2022-12-23T08:23:28.663Z,100001.78
2022-12-23T08:26:02.715Z,100012.41
2022-12-23T08:28:38.412Z,100021.75
2022-12-23T08:31:13.356Z,100029.53
2022-12-23T08:33:47.911Z,100026.50
2022-12-23T08:36:23.295Z,100040.66
2022-12-23T08:38:58.361Z,100037.66
2022-12-23T08:41:32.608Z,100035.06
2022-12-23T08:44:07.872Z,100032.00
2022-12-23T08:46:41.753Z,100030.09
2022-12-23T08:49:15.360Z,100029.53
2022-12-23T08:51:48.982Z,100030.59
2022-12-23T08:54:23.767Z,100034.00
2022-12-23T08:56:57.047Z,100042.94
2022-12-23T08:59:31.907Z,100046.41
2022-12-23T09:02:05.570Z,100054.59
2022-12-23T09:04:39.098Z,100067.63
2022-12-23T09:07:12.547Z,100069.97
2022-12-23T09:09:46.099Z,100074.16
2022-12-23T09:12:19.507Z,100078.56
2022-12-23T09:14:54.871Z,100078.56
2022-12-23T09:17:28.272Z,100073.78
2022-12-23T09:20:01.883Z,100066.84
2022-12-23T09:22:35.886Z,100068.78
2022-12-23T09:25:10.895Z,100063.84
2022-12-23T09:27:44.357Z,100073.75
2022-12-23T09:30:19.290Z,100072.19
2022-12-23T09:32:52.630Z,100067.31
2022-12-23T09:35:26.156Z,100068.31
2022-12-23T09:37:59.435Z,100060.94
2022-12-23T09:40:34.075Z,100067.72
2022-12-23T09:43:10.934Z,100077.34
2022-12-23T09:45:52.142Z,100082.72
2022-12-23T09:48:26.930Z,100084.91
2022-12-23T09:51:01.488Z,100086.91
2022-12-23T09:53:41.695Z,100097.47
2022-12-23T09:56:17.930Z,100094.09
2022-12-23T09:58:54.911Z,100089.56
2022-12-23T10:01:33.535Z,100088.91
2022-12-23T10:04:25.654Z,100077.56
2022-12-23T10:07:10.556Z,100068.00
2022-12-23T10:09:44.927Z,100068.41
2022-12-23T10:12:27.403Z,100050.03
2022-12-23T10:15:03.547Z,100065.22
2022-12-23T10:17:41.554Z,100060.03
2022-12-23T10:20:18.384Z,100065.13
2022-12-23T10:22:52.641Z,100072.41
2022-12-23T10:25:34.507Z,100076.47
2022-12-23T10:28:10.191Z,100075.06
2022-12-23T10:31:17.263Z,100070.88
2022-12-23T10:33:45.724Z,100074.66
2022-12-23T10:36:23.846Z,100079.84
2022-12-23T10:39:02.844Z,100082.53
2022-12-23T10:41:39.103Z,100080.25
2022-12-23T10:44:25.409Z,100072.50
2022-12-23T10:47:03.519Z,100072.59
2022-12-23T10:49:44.438Z,100066.44
2022-12-23T10:52:19.932Z,100062.66
2022-12-23T10:54:53.481Z,100075.66
2022-12-23T10:57:26.916Z,100068.00
2022-12-23T11:00:00.646Z,100071.66
2022-12-23T11:02:41.034Z,100062.63
2022-12-23T11:05:21.947Z,100056.84
2022-12-23T11:07:55.773Z,100067.91
2022-12-23T11:10:32.928Z,100075.03
2022-12-23T11:13:06.293Z,100078.25
2022-12-23T11:15:40.712Z,100074.34
2022-12-23T11:18:18.340Z,100078.84
2022-12-23T11:21:06.787Z,100078.16
2022-12-23T11:23:40.436Z,100082.34
2022-12-23T11:26:18.965Z,100089.38
2022-12-23T11:28:53.430Z,100086.31
2022-12-23T11:31:28.456Z,100090.50
2022-12-23T11:34:02.321Z,100083.91
2022-12-23T11:36:37.245Z,100080.63
2022-12-23T11:39:19.462Z,100072.50
2022-12-23T11:41:54.156Z,100066.59
2022-12-23T11:44:29.158Z,100068.69
2022-12-23T11:47:18.839Z,100060.94
2022-12-23T11:49:53.162Z,100061.91
2022-12-23T11:52:28.952Z,100061.31
2022-12-23T11:55:03.261Z,100064.50
2022-12-23T11:57:40.463Z,100059.63
2022-12-23T12:00:20.538Z,100057.50
2022-12-23T12:02:56.202Z,100061.88
2022-12-23T12:05:32.450Z,100059.63
2022-12-23T12:08:10.265Z,100064.91
2022-12-23T12:10:44.068Z,100053.38
2022-12-23T12:13:22.806Z,100053.34
2022-12-23T12:16:03.441Z,100056.09
2022-12-23T12:18:37.252Z,100056.84
2022-12-23T12:21:13.423Z,100050.16
2022-12-23T12:23:55.484Z,100033.38
2022-12-23T12:26:42.600Z,100030.34
2022-12-23T12:29:18.091Z,100032.84
2022-12-23T12:31:52.332Z,100031.72
2022-12-23T12:34:31.152Z,100021.63
2022-12-23T12:37:07.938Z,100008.28
2022-12-23T12:39:50.974Z,100006.78
2022-12-23T12:42:30.286Z,100012.94
2022-12-23T12:45:11.936Z,100011.16
2022-12-23T12:47:55.023Z,99998.22
2022-12-23T12:50:32.145Z,100002.78
2022-12-23T12:53:21.550Z,100008.03
2022-12-23T12:55:58.435Z,100013.41
2022-12-23T12:58:31.971Z,100011.84
2022-12-23T13:01:13.454Z,100010.81
2022-12-23T13:04:08.737Z,100018.50
2022-12-23T13:06:47.235Z,100004.47
2022-12-23T13:09:28.662Z,100001.16
2022-12-23T13:12:06.644Z,100007.16
2022-12-23T13:14:48.975Z,100016.38
2022-12-23T13:17:25.678Z,100029.41
2022-12-23T13:20:03.985Z,100034.19
2022-12-23T13:22:38.551Z,100027.13
2022-12-23T13:25:14.939Z,100022.56
2022-12-23T13:27:55.432Z,100018.28
2022-12-23T13:30:31.795Z,100011.88
2022-12-23T13:33:13.918Z,100004.09
2022-12-23T13:36:01.302Z,100002.09
2022-12-23T13:38:50.621Z,99999.91
2022-12-23T13:41:28.103Z,100002.50
2022-12-23T13:44:05.321Z,100005.28
2022-12-23T13:46:44.342Z,100004.47
2022-12-23T13:49:24.448Z,100011.66
2022-12-23T13:52:03.679Z,100006.38
2022-12-23T13:54:45.958Z,100007.19
2022-12-23T13:57:26.137Z,100010.19
2022-12-23T14:00:21.701Z,100007.78
2022-12-23T14:03:05.877Z,100019.84
2022-12-23T14:05:40.907Z,100017.94
2022-12-23T14:08:23.190Z,100014.28
2022-12-23T14:10:57.910Z,100001.44
2022-12-23T14:13:32.668Z,100007.41
2022-12-23T14:16:21.405Z,100006.63
2022-12-23T14:19:05.886Z,100003.13
2022-12-23T14:21:44.283Z,99991.00
2022-12-23T14:24:31.440Z,99986.53
2022-12-23T14:27:16.336Z,99985.94
2022-12-23T14:29:57.444Z,99988.88
2022-12-23T14:32:41.732Z,99982.09
2022-12-23T14:35:21.103Z,99978.81
2022-12-23T14:38:10.739Z,99967.66
2022-12-23T14:40:52.627Z,99961.72
2022-12-23T14:43:28.214Z,99970.97
2022-12-23T14:46:02.369Z,99969.78
2022-12-23T14:49:15.956Z,99974.59
2022-12-23T14:51:50.768Z,99973.19
2022-12-23T14:54:38.690Z,99977.28
2022-12-23T14:57:17.703Z,99976.19
2022-12-23T14:59:56.853Z,99980.66
2022-12-23T15:02:32.346Z,99976.41
2022-12-23T15:05:06.296Z,99982.47
2022-12-23T15:07:43.220Z,99988.25
2022-12-23T15:10:18.330Z,99985.75
2022-12-23T15:12:53.628Z,99985.03
2022-12-23T15:15:28.411Z,99988.84
2022-12-23T15:18:02.281Z,99997.41
2022-12-23T15:20:36.075Z,99993.69
2022-12-23T15:23:11.784Z,99989.13
2022-12-23T15:25:47.013Z,99983.06
2022-12-23T15:28:21.924Z,99988.25
2022-12-23T15:30:56.730Z,99984.06
2022-12-23T15:36:30.504Z,99980.28
2022-12-23T15:39:09.250Z,99986.16
2022-12-23T15:41:43.730Z,99984.19
2022-12-23T15:44:19.633Z,99972.78
2022-12-23T15:46:53.905Z,99976.91
2022-12-23T15:49:27.327Z,99976.91
2022-12-23T15:52:10.892Z,99971.75
2022-12-23T15:54:54.950Z,99974.56
2022-12-23T15:57:30.589Z,99972.97
2022-12-23T16:00:05.232Z,99971.84
2022-12-23T16:05:33.528Z,99969.16
2022-12-23T16:08:11.537Z,99958.91
2022-12-23T16:10:57.783Z,99966.84
2022-12-23T16:13:31.447Z,99963.09
2022-12-23T16:16:21.116Z,99958.72
2022-12-23T16:18:54.906Z,99957.03
2022-12-23T16:21:30.726Z,99950.97
2022-12-23T16:24:08.437Z,99958.00
2022-12-23T16:26:43.960Z,99953.63
2022-12-23T16:29:17.702Z,99943.47
2022-12-23T16:31:56.070Z,99938.31
2022-12-23T16:34:34.932Z,99935.53
2022-12-23T16:37:08.711Z,99930.09
2022-12-23T16:39:42.345Z,99931.97
2022-12-23T16:42:17.052Z,99923.03
2022-12-23T16:44:51.254Z,99919.56
2022-12-23T16:47:24.629Z,99915.97
2022-12-23T16:49:58.355Z,99910.09
2022-12-23T16:52:31.818Z,99914.38
2022-12-23T16:55:07.494Z,99907.34
2022-12-23T16:57:42.340Z,99901.38
2022-12-23T17:00:16.966Z,99892.91
2022-12-23T17:02:50.575Z,99902.16
2022-12-23T17:05:24.887Z,99901.94
2022-12-23T17:07:58.321Z,99897.09
2022-12-23T17:10:31.950Z,99900.16
2022-12-23T17:13:06.708Z,99891.50
2022-12-23T17:15:40.603Z,99894.00
2022-12-23T17:18:14.435Z,99904.44
2022-12-23T17:20:48.686Z,99901.84
2022-12-23T17:23:26.711Z,99897.78
2022-12-23T17:26:00.350Z,99904.84
2022-12-23T17:28:35.213Z,99895.66
2022-12-23T17:31:14.354Z,99906.38
2022-12-23T17:33:48.899Z,99902.72
2022-12-23T17:36:22.654Z,99904.59
2022-12-23T17:38:56.206Z,99899.63
2022-12-23T17:41:30.923Z,99903.00
2022-12-23T17:44:06.565Z,99903.81
2022-12-23T17:46:40.271Z,99897.97
2022-12-23T17:49:13.772Z,99904.84
2022-12-23T17:51:47.481Z,99907.34
2022-12-23T17:54:23.729Z,99908.91
2022-12-23T17:56:58.240Z,99903.63
2022-12-23T17:59:33.024Z,99908.72
2022-12-23T18:02:13.058Z,99903.34
2022-12-23T18:04:46.421Z,99916.66
2022-12-23T18:07:20.880Z,99920.84
2022-12-23T18:09:54.620Z,99912.00
2022-12-23T18:12:30.768Z,99908.63
2022-12-23T18:15:06.642Z,99915.38
2022-12-23T18:17:40.321Z,99918.06
2022-12-23T18:20:16.025Z,99914.59
2022-12-23T18:22:50.662Z,99924.03
2022-12-23T18:25:24.773Z,99914.50
2022-12-23T18:27:58.753Z,99908.16
2022-12-23T18:30:33.502Z,99912.53
2022-12-23T18:33:08.845Z,99912.91
2022-12-23T18:35:43.983Z,99920.47
2022-12-23T18:38:18.521Z,99919.06
2022-12-23T18:40:54.107Z,99911.28
2022-12-23T18:43:28.394Z,99903.44
2022-12-23T18:46:03.497Z,99914.59
2022-12-23T18:48:37.470Z,99912.34
2022-12-23T18:51:14.568Z,99919.19
2022-12-23T18:53:48.537Z,99917.41
2022-12-23T18:56:22.651Z,99914.81
2022-12-23T18:58:56.308Z,99906.19
2022-12-23T19:01:32.275Z,99919.19
2022-12-23T19:04:07.377Z,99909.47
2022-12-23T19:06:40.865Z,99908.84
2022-12-23T19:09:15.879Z,99907.97
2022-12-23T19:11:50.425Z,99916.69
2022-12-23T19:14:24.267Z,99908.25
2022-12-23T19:17:00.972Z,99912.72
2022-12-23T19:19:35.420Z,99910.31
2022-12-23T19:22:08.800Z,99920.84
2022-12-23T19:25:03.843Z,99911.72
2022-12-23T19:27:38.736Z,99907.06
2022-12-23T19:30:13.831Z,99916.31
2022-12-23T19:32:53.207Z,99919.19
2022-12-23T19:35:26.949Z,99915.19
2022-12-23T19:38:00.422Z,99910.72
2022-12-23T19:40:34.336Z,99913.84
2022-12-23T19:43:08.036Z,99913.84
2022-12-23T19:45:41.782Z,99914.63
2022-12-23T19:48:16.737Z,99907.34
2022-12-23T19:50:57.067Z,99914.81
2022-12-23T19:53:30.537Z,99915.22
2022-12-23T19:56:05.644Z,99919.19
2022-12-23T19:58:40.186Z,99919.09
2022-12-23T20:01:14.470Z,99925.44
2022-12-23T20:03:50.475Z,99916.81
2022-12-23T20:06:25.218Z,99915.13
2022-12-23T20:09:04.007Z,99920.47
2022-12-23T20:11:39.230Z,99923.97
2022-12-23T20:14:13.334Z,99924.75
2022-12-23T20:16:48.390Z,99936.69
2022-12-23T20:19:23.198Z,99930.63
2022-12-23T20:21:56.903Z,99932.41
2022-12-23T20:24:33.172Z,99930.81
2022-12-23T20:27:11.436Z,99934.09
2022-12-23T20:29:46.003Z,99933.28
2022-12-23T20:32:19.505Z,99931.03
2022-12-23T20:34:54.376Z,99934.78
2022-12-23T20:37:27.921Z,99930.44
2022-12-23T20:40:01.313Z,99933.81
2022-12-23T20:42:35.141Z,99934.59
2022-12-23T20:45:08.895Z,99933.63
2022-12-23T20:47:42.453Z,99932.53
2022-12-23T20:50:17.185Z,99926.38
2022-12-23T20:52:50.725Z,99926.28
2022-12-23T20:55:24.089Z,99929.75
2022-12-23T20:57:57.650Z,99919.09
2022-12-23T21:00:30.913Z,99920.88
2022-12-23T21:03:10.227Z,99925.03
2022-12-23T21:05:45.345Z,99924.13
2022-12-23T21:08:19.104Z,99931.59
2022-12-23T21:10:53.581Z,99934.19
2022-12-23T21:13:27.121Z,99931.59
2022-12-23T21:16:04.021Z,99928.81
2022-12-23T21:18:40.532Z,99925.16
2022-12-23T21:21:15.586Z,99923.47
2022-12-23T21:23:49.130Z,99931.81
2022-12-23T21:26:23.344Z,99935.97
2022-12-23T21:28:59.224Z,99939.47
2022-12-23T21:31:34.129Z,99935.38
2022-12-23T21:34:08.353Z,99925.66
2022-12-23T21:36:43.603Z,99935.28
2022-12-23T21:39:17.331Z,99937.97
2022-12-23T21:41:52.706Z,99946.00
2022-12-23T21:44:26.238Z,99937.16
2022-12-23T21:46:59.685Z,99937.34
2022-12-23T21:49:33.305Z,99931.31
2022-12-23T21:52:07.947Z,99934.88
2022-12-23T21:54:41.513Z,99941.03
2022-12-23T21:57:14.828Z,99941.72
2022-12-23T21:59:48.431Z,99950.09
2022-12-23T22:02:21.849Z,99949.19
2022-12-23T22:04:55.520Z,99956.13
2022-12-23T22:07:30.243Z,99952.97
2022-12-23T22:10:03.884Z,99956.53
2022-12-23T22:12:37.228Z,99950.97
2022-12-23T22:15:11.899Z,99951.16
2022-12-23T22:17:45.511Z,99951.78
2022-12-23T22:20:19.605Z,99950.88
2022-12-23T22:22:54.371Z,99952.66
2022-12-23T22:25:27.934Z,99952.97
2022-12-23T22:28:01.505Z,99963.78
2022-12-23T22:30:35.167Z,99957.72
2022-12-23T22:33:08.824Z,99959.13
2022-12-23T22:35:42.423Z,99958.78
2022-12-23T22:38:17.385Z,99956.31
2022-12-23T22:40:52.491Z,99957.81
2022-12-23T22:43:25.807Z,99954.22
2022-12-23T22:46:00.736Z,99959.91
2022-12-23T22:48:34.320Z,99968.53
2022-12-23T22:51:09.838Z,99965.94
2022-12-23T22:53:44.639Z,99972.69
2022-12-23T22:56:19.531Z,99967.34
2022-12-23T22:58:53.670Z,99965.34
2022-12-23T23:01:28.449Z,99967.78
2022-12-23T23:04:02.770Z,99972.06
2022-12-23T23:06:37.919Z,99965.91
2022-12-23T23:09:14.607Z,99970.28
2022-12-23T23:11:48.607Z,99975.13
2022-12-23T23:14:21.991Z,99975.25
2022-12-23T23:16:55.653Z,99975.25
2022-12-23T23:19:29.042Z,99981.19
2022-12-23T23:22:02.917Z,99972.56
2022-12-23T23:24:37.640Z,99973.06
2022-12-23T23:27:11.287Z,99975.72
2022-12-23T23:29:44.629Z,99975.53
2022-12-23T23:32:18.352Z,99973.75
2022-12-23T23:34:51.773Z,99977.41
2022-12-23T23:37:25.450Z,99974.03
2022-12-23T23:40:00.223Z,99982.28
2022-12-23T23:42:34.049Z,99976.13
2022-12-23T23:45:07.979Z,99980.78
2022-12-23T23:47:41.706Z,99976.13
2022-12-23T23:50:15.627Z,99976.03
2022-12-23T23:52:49.281Z,99970.97
2022-12-23T23:55:23.940Z,99977.22
2022-12-23T23:57:57.511Z,99982.19
